« Weather Forecast

Download Key to Aerodrome Forecast (TAF) and Aviation Routine ... PDF Ebook

Key to Aerodrome Forecast (TAF) and Aviation . Routine Weather Report (METAR) (Front) TAF . KPIT 091730Z 0918/1024 15005KT 5SM HZ FEW020 WS010/31022KT
View Key to Aerodrome Forecast (TAF) and Aviation Routine ... PDF Ebook Download Key to Aerodrome Forecast (TAF) and Aviation Routine ... PDF Ebook
Click download button above to download Key to Aerodrome Forecast (TAF) and Aviation Routine ... PDF Ebook file